sensor_id;sensor_type;location;lat;lon;timestamp;P1;durP1;ratioP1;P2;durP2;ratioP2
2011;SDS011;1009;51.436;6.972;2023-03-01T00:00:44;14.57;;;12.00;;
2011;SDS011;1009;51.436;6.972;2023-03-01T00:03:11;18.87;;;13.23;;
2011;SDS011;1009;51.436;6.972;2023-03-01T00:05:43;16.20;;;12.40;;
2011;SDS011;1009;51.436;6.972;2023-03-01T00:08:10;13.43;;;12.13;;
2011;SDS011;1009;51.436;6.972;2023-03-01T00:10:38;13.87;;;12.47;;
2011;SDS011;1009;51.436;6.972;2023-03-01T00:13:05;15.93;;;13.33;;
2011;SDS011;1009;51.436;6.972;2023-03-01T00:15:32;15.00;;;12.60;;
2011;SDS011;1009;51.436;6.972;2023-03-01T00:17:59;13.60;;;12.27;;
2011;SDS011;1009;51.436;6.972;2023-03-01T00:20:26;15.53;;;12.60;;
2011;SDS011;1009;51.436;6.972;2023-03-01T00:22:53;13.53;;;12.13;;
2011;SDS011;1009;51.436;6.972;2023-03-01T00:25:20;14.83;;;12.40;;
2011;SDS011;1009;51.436;6.972;2023-03-01T00:27:48;13.70;;;12.30;;
2011;SDS011;1009;51.436;6.972;2023-03-01T00:30:14;13.83;;;12.53;;
2011;SDS011;1009;51.436;6.972;2023-03-01T00:32:41;15.00;;;12.93;;
2011;SDS011;1009;51.436;6.972;2023-03-01T00:35:08;16.57;;;12.47;;
2011;SDS011;1009;51.436;6.972;2023-03-01T00:37:35;14.97;;;13.40;;
2011;SDS011;1009;51.436;6.972;2023-03-01T00:40:07;15.53;;;13.00;;
2011;SDS011;1009;51.436;6.972;2023-03-01T00:42:35;14.43;;;12.93;;
2011;SDS011;1009;51.436;6.972;2023-03-01T00:45:03;13.60;;;12.20;;
2011;SDS011;1009;51.436;6.972;2023-03-01T00:47:32;13.47;;;12.03;;
2011;SDS011;1009;51.436;6.972;2023-03-01T00:49:59;16.67;;;13.50;;
2011;SDS011;1009;51.436;6.972;2023-03-01T00:52:26;16.23;;;13.90;;
2011;SDS011;1009;51.436;6.972;2023-03-01T00:54:53;16.47;;;13.40;;
2011;SDS011;1009;51.436;6.972;2023-03-01T00:57:20;14.17;;;12.87;;
2011;SDS011;1009;51.436;6.972;2023-03-01T00:59:46;15.13;;;13.27;;
2011;SDS011;1009;51.436;6.972;2023-03-01T01:02:14;14.97;;;12.40;;
2011;SDS011;1009;51.436;6.972;2023-03-01T01:04:41;15.63;;;13.50;;
2011;SDS011;1009;51.436;6.972;2023-03-01T01:07:08;13.77;;;12.33;;
2011;SDS011;1009;51.436;6.972;2023-03-01T01:09:34;16.10;;;13.80;;
2011;SDS011;1009;51.436;6.972;2023-03-01T01:12:01;14.33;;;12.90;;
2011;SDS011;1009;51.436;6.972;2023-03-01T01:14:28;14.63;;;12.97;;
2011;SDS011;1009;51.436;6.972;2023-03-01T01:16:55;14.40;;;12.90;;
2011;SDS011;1009;51.436;6.972;2023-03-01T01:19:24;14.60;;;13.20;;
2011;SDS011;1009;51.436;6.972;2023-03-01T01:21:54;14.10;;;12.60;;
2011;SDS011;1009;51.436;6.972;2023-03-01T01:24:24;13.90;;;12.43;;
2011;SDS011;1009;51.436;6.972;2023-03-01T01:26:50;15.43;;;13.93;;
2011;SDS011;1009;51.436;6.972;2023-03-01T01:29:17;13.43;;;12.03;;
2011;SDS011;1009;51.436;6.972;2023-03-01T01:31:44;14.17;;;12.70;;
2011;SDS011;1009;51.436;6.972;2023-03-01T01:34:14;16.87;;;13.27;;
2011;SDS011;1009;51.436;6.972;2023-03-01T01:36:44;15.20;;;13.60;;
2011;SDS011;1009;51.436;6.972;2023-03-01T01:39:14;16.27;;;14.63;;
2011;SDS011;1009;51.436;6.972;2023-03-01T01:41:41;14.60;;;12.83;;
2011;SDS011;1009;51.436;6.972;2023-03-01T01:44:16;14.80;;;13.20;;
2011;SDS011;1009;51.436;6.972;2023-03-01T01:46:45;16.13;;;14.53;;
2011;SDS011;1009;51.436;6.972;2023-03-01T01:49:19;15.80;;;12.97;;
2011;SDS011;1009;51.436;6.972;2023-03-01T01:52:09;16.13;;;14.50;;
2011;SDS011;1009;51.436;6.972;2023-03-01T01:54:40;15.30;;;13.70;;
2011;SDS011;1009;51.436;6.972;2023-03-01T01:57:11;16.57;;;14.90;;
2011;SDS011;1009;51.436;6.972;2023-03-01T01:59:42;15.53;;;13.93;;
2011;SDS011;1009;51.436;6.972;2023-03-01T02:02:13;14.80;;;13.30;;
2011;SDS011;1009;51.436;6.972;2023-03-01T02:04:43;15.47;;;13.87;;
2011;SDS011;1009;51.436;6.972;2023-03-01T02:07:13;15.80;;;14.10;;
2011;SDS011;1009;51.436;6.972;2023-03-01T02:09:42;15.70;;;14.10;;
2011;SDS011;1009;51.436;6.972;2023-03-01T02:12:12;14.83;;;13.40;;
2011;SDS011;1009;51.436;6.972;2023-03-01T02:14:43;16.33;;;14.57;;
2011;SDS011;1009;51.436;6.972;2023-03-01T02:17:10;16.43;;;14.37;;
2011;SDS011;1009;51.436;6.972;2023-03-01T02:19:41;16.63;;;15.03;;
2011;SDS011;1009;51.436;6.972;2023-03-01T02:22:20;19.40;;;15.00;;
2011;SDS011;1009;51.436;6.972;2023-03-01T02:25:05;15.00;;;13.50;;
2011;SDS011;1009;51.436;6.972;2023-03-01T02:27:40;14.50;;;13.10;;
2011;SDS011;1009;51.436;6.972;2023-03-01T02:30:14;15.57;;;14.00;;
2011;SDS011;1009;51.436;6.972;2023-03-01T02:32:41;15.43;;;13.90;;
2011;SDS011;1009;51.436;6.972;2023-03-01T02:35:08;16.00;;;14.40;;
2011;SDS011;1009;51.436;6.972;2023-03-01T02:37:36;15.30;;;13.70;;
2011;SDS011;1009;51.436;6.972;2023-03-01T02:40:05;14.37;;;12.80;;
2011;SDS011;1009;51.436;6.972;2023-03-01T02:42:37;16.13;;;13.90;;
2011;SDS011;1009;51.436;6.972;2023-03-01T02:45:11;14.70;;;13.13;;
2011;SDS011;1009;51.436;6.972;2023-03-01T02:47:39;17.57;;;15.17;;
2011;SDS011;1009;51.436;6.972;2023-03-01T02:50:11;16.10;;;14.10;;
2011;SDS011;1009;51.436;6.972;2023-03-01T02:52:45;15.90;;;13.73;;
2011;SDS011;1009;51.436;6.972;2023-03-01T02:55:16;15.60;;;14.00;;
2011;SDS011;1009;51.436;6.972;2023-03-01T02:57:44;15.07;;;13.57;;
2011;SDS011;1009;51.436;6.972;2023-03-01T03:00:17;16.10;;;13.90;;
2011;SDS011;1009;51.436;6.972;2023-03-01T03:02:48;17.50;;;14.10;;
2011;SDS011;1009;51.436;6.972;2023-03-01T03:05:18;15.40;;;13.80;;
2011;SDS011;1009;51.436;6.972;2023-03-01T03:07:47;17.83;;;16.03;;
2011;SDS011;1009;51.436;6.972;2023-03-01T03:10:15;18.43;;;13.90;;
2011;SDS011;1009;51.436;6.972;2023-03-01T03:12:44;15.77;;;13.97;;
2011;SDS011;1009;51.436;6.972;2023-03-01T03:15:15;16.07;;;14.37;;
2011;SDS011;1009;51.436;6.972;2023-03-01T03:17:42;16.03;;;14.33;;
2011;SDS011;1009;51.436;6.972;2023-03-01T03:20:12;16.47;;;14.73;;
2011;SDS011;1009;51.436;6.972;2023-03-01T03:22:43;18.97;;;14.87;;
2011;SDS011;1009;51.436;6.972;2023-03-01T03:25:11;17.00;;;14.50;;
2011;SDS011;1009;51.436;6.972;2023-03-01T03:27:38;15.23;;;13.70;;
2011;SDS011;1009;51.436;6.972;2023-03-01T03:30:07;15.50;;;13.97;;
2011;SDS011;1009;51.436;6.972;2023-03-01T03:32:37;16.80;;;14.27;;
2011;SDS011;1009;51.436;6.972;2023-03-01T03:35:04;16.30;;;14.70;;
2011;SDS011;1009;51.436;6.972;2023-03-01T03:37:39;16.47;;;14.60;;
2011;SDS011;1009;51.436;6.972;2023-03-01T03:40:30;15.60;;;14.00;;
2011;SDS011;1009;51.436;6.972;2023-03-01T03:42:57;16.87;;;15.07;;
2011;SDS011;1009;51.436;6.972;2023-03-01T03:45:35;16.60;;;14.07;;
2011;SDS011;1009;51.436;6.972;2023-03-01T03:48:03;18.10;;;14.10;;
2011;SDS011;1009;51.436;6.972;2023-03-01T03:50:32;16.67;;;14.90;;
2011;SDS011;1009;51.436;6.972;2023-03-01T03:53:01;18.63;;;15.87;;
2011;SDS011;1009;51.436;6.972;2023-03-01T03:55:29;16.60;;;14.77;;
2011;SDS011;1009;51.436;6.972;2023-03-01T03:57:59;16.10;;;14.40;;
2011;SDS011;1009;51.436;6.972;2023-03-01T04:00:32;15.83;;;14.23;;
2011;SDS011;1009;51.436;6.972;2023-03-01T04:03:00;19.40;;;15.10;;
2011;SDS011;1009;51.436;6.972;2023-03-01T04:05:30;17.10;;;14.77;;
2011;SDS011;1009;51.436;6.972;2023-03-01T04:08:01;16.20;;;14.50;;
2011;SDS011;1009;51.436;6.972;2023-03-01T04:10:29;16.13;;;14.40;;
2011;SDS011;1009;51.436;6.972;2023-03-01T04:12:57;15.83;;;14.10;;
2011;SDS011;1009;51.436;6.972;2023-03-01T04:15:24;17.97;;;14.80;;
2011;SDS011;1009;51.436;6.972;2023-03-01T04:17:53;16.67;;;14.93;;
2011;SDS011;1009;51.436;6.972;2023-03-01T04:20:21;17.13;;;14.40;;
2011;SDS011;1009;51.436;6.972;2023-03-01T04:22:50;16.80;;;13.77;;
2011;SDS011;1009;51.436;6.972;2023-03-01T04:25:19;18.70;;;14.43;;
2011;SDS011;1009;51.436;6.972;2023-03-01T04:27:46;17.07;;;14.30;;
2011;SDS011;1009;51.436;6.972;2023-03-01T04:30:19;17.93;;;15.07;;
2011;SDS011;1009;51.436;6.972;2023-03-01T04:32:50;16.57;;;14.90;;
2011;SDS011;1009;51.436;6.972;2023-03-01T04:35:17;18.17;;;14.13;;
2011;SDS011;1009;51.436;6.972;2023-03-01T04:37:43;16.20;;;14.53;;
2011;SDS011;1009;51.436;6.972;2023-03-01T04:40:10;17.67;;;14.57;;
2011;SDS011;1009;51.436;6.972;2023-03-01T04:42:42;15.43;;;13.73;;
2011;SDS011;1009;51.436;6.972;2023-03-01T04:45:09;17.13;;;15.50;;
2011;SDS011;1009;51.436;6.972;2023-03-01T04:47:38;16.83;;;14.93;;
2011;SDS011;1009;51.436;6.972;2023-03-01T04:50:06;15.87;;;14.27;;
2011;SDS011;1009;51.436;6.972;2023-03-01T04:52:37;19.03;;;15.70;;
2011;SDS011;1009;51.436;6.972;2023-03-01T04:55:04;19.00;;;15.50;;
2011;SDS011;1009;51.436;6.972;2023-03-01T04:57:32;18.20;;;15.20;;
2011;SDS011;1009;51.436;6.972;2023-03-01T05:00:00;18.00;;;15.80;;
2011;SDS011;1009;51.436;6.972;2023-03-01T05:02:44;17.93;;;14.97;;
2011;SDS011;1009;51.436;6.972;2023-03-01T05:05:13;22.97;;;16.33;;
2011;SDS011;1009;51.436;6.972;2023-03-01T05:07:40;18.73;;;15.37;;
2011;SDS011;1009;51.436;6.972;2023-03-01T05:10:07;19.80;;;15.63;;
2011;SDS011;1009;51.436;6.972;2023-03-01T05:12:34;17.30;;;15.47;;
2011;SDS011;1009;51.436;6.972;2023-03-01T05:15:04;17.90;;;14.40;;
2011;SDS011;1009;51.436;6.972;2023-03-01T05:17:32;23.63;;;15.20;;
2011;SDS011;1009;51.436;6.972;2023-03-01T05:19:58;17.50;;;15.67;;
2011;SDS011;1009;51.436;6.972;2023-03-01T05:22:26;17.20;;;15.13;;
2011;SDS011;1009;51.436;6.972;2023-03-01T05:24:53;20.67;;;15.70;;
2011;SDS011;1009;51.436;6.972;2023-03-01T05:27:20;17.00;;;14.73;;
2011;SDS011;1009;51.436;6.972;2023-03-01T05:29:47;20.90;;;15.60;;
2011;SDS011;1009;51.436;6.972;2023-03-01T05:32:15;17.97;;;15.20;;
2011;SDS011;1009;51.436;6.972;2023-03-01T05:34:42;18.17;;;15.33;;
2011;SDS011;1009;51.436;6.972;2023-03-01T05:37:11;17.37;;;15.50;;
2011;SDS011;1009;51.436;6.972;2023-03-01T05:39:38;18.53;;;15.07;;
2011;SDS011;1009;51.436;6.972;2023-03-01T05:42:08;17.07;;;15.37;;
2011;SDS011;1009;51.436;6.972;2023-03-01T05:44:36;16.80;;;14.30;;
2011;SDS011;1009;51.436;6.972;2023-03-01T05:47:03;16.53;;;13.83;;
2011;SDS011;1009;51.436;6.972;2023-03-01T05:49:32;17.93;;;15.30;;
2011;SDS011;1009;51.436;6.972;2023-03-01T05:51:59;16.33;;;14.60;;
2011;SDS011;1009;51.436;6.972;2023-03-01T05:54:26;17.33;;;14.40;;
2011;SDS011;1009;51.436;6.972;2023-03-01T05:56:53;17.83;;;15.60;;
2011;SDS011;1009;51.436;6.972;2023-03-01T05:59:20;17.47;;;15.63;;
2011;SDS011;1009;51.436;6.972;2023-03-01T06:01:46;16.53;;;14.83;;
2011;SDS011;1009;51.436;6.972;2023-03-01T06:04:13;19.10;;;16.10;;
2011;SDS011;1009;51.436;6.972;2023-03-01T06:06:41;18.07;;;15.87;;
2011;SDS011;1009;51.436;6.972;2023-03-01T06:09:08;20.00;;;16.50;;
2011;SDS011;1009;51.436;6.972;2023-03-01T06:11:35;18.47;;;15.40;;
2011;SDS011;1009;51.436;6.972;2023-03-01T06:14:03;19.80;;;16.17;;
2011;SDS011;1009;51.436;6.972;2023-03-01T06:16:31;19.17;;;15.37;;
2011;SDS011;1009;51.436;6.972;2023-03-01T06:18:58;17.83;;;15.93;;
2011;SDS011;1009;51.436;6.972;2023-03-01T06:21:27;18.17;;;15.37;;
2011;SDS011;1009;51.436;6.972;2023-03-01T06:23:55;20.43;;;16.37;;
2011;SDS011;1009;51.436;6.972;2023-03-01T06:26:22;19.83;;;16.00;;
2011;SDS011;1009;51.436;6.972;2023-03-01T06:28:49;17.57;;;15.80;;
2011;SDS011;1009;51.436;6.972;2023-03-01T06:31:16;18.10;;;15.27;;
2011;SDS011;1009;51.436;6.972;2023-03-01T06:33:42;17.00;;;15.27;;
2011;SDS011;1009;51.436;6.972;2023-03-01T06:36:10;19.20;;;15.37;;
2011;SDS011;1009;51.436;6.972;2023-03-01T06:38:43;18.13;;;15.87;;
2011;SDS011;1009;51.436;6.972;2023-03-01T06:41:11;18.87;;;15.73;;
2011;SDS011;1009;51.436;6.972;2023-03-01T06:43:38;21.20;;;16.90;;
2011;SDS011;1009;51.436;6.972;2023-03-01T06:46:05;19.73;;;15.40;;
2011;SDS011;1009;51.436;6.972;2023-03-01T06:48:33;18.90;;;16.57;;
2011;SDS011;1009;51.436;6.972;2023-03-01T06:51:00;19.10;;;15.60;;
2011;SDS011;1009;51.436;6.972;2023-03-01T06:53:27;18.40;;;15.67;;
2011;SDS011;1009;51.436;6.972;2023-03-01T06:55:56;18.90;;;16.20;;
2011;SDS011;1009;51.436;6.972;2023-03-01T06:58:26;18.47;;;16.30;;
2011;SDS011;1009;51.436;6.972;2023-03-01T07:00:53;19.57;;;16.63;;
2011;SDS011;1009;51.436;6.972;2023-03-01T07:03:20;17.50;;;15.60;;
2011;SDS011;1009;51.436;6.972;2023-03-01T07:05:48;20.53;;;16.37;;
2011;SDS011;1009;51.436;6.972;2023-03-01T07:08:16;19.57;;;16.40;;
2011;SDS011;1009;51.436;6.972;2023-03-01T07:10:43;17.57;;;15.77;;
2011;SDS011;1009;51.436;6.972;2023-03-01T07:13:10;24.67;;;16.47;;
2011;SDS011;1009;51.436;6.972;2023-03-01T07:15:39;21.33;;;16.90;;
2011;SDS011;1009;51.436;6.972;2023-03-01T07:18:09;21.00;;;16.47;;
2011;SDS011;1009;51.436;6.972;2023-03-01T07:20:35;18.43;;;16.30;;
2011;SDS011;1009;51.436;6.972;2023-03-01T07:23:02;19.27;;;16.67;;
2011;SDS011;1009;51.436;6.972;2023-03-01T07:25:31;19.57;;;17.13;;
2011;SDS011;1009;51.436;6.972;2023-03-01T07:27:58;19.40;;;16.50;;
2011;SDS011;1009;51.436;6.972;2023-03-01T07:30:25;17.63;;;15.77;;
2011;SDS011;1009;51.436;6.972;2023-03-01T07:32:54;18.07;;;16.10;;
2011;SDS011;1009;51.436;6.972;2023-03-01T07:35:30;18.30;;;16.13;;
2011;SDS011;1009;51.436;6.972;2023-03-01T07:37:58;21.50;;;16.13;;
2011;SDS011;1009;51.436;6.972;2023-03-01T07:40:25;19.97;;;15.27;;
2011;SDS011;1009;51.436;6.972;2023-03-01T07:42:54;19.53;;;16.37;;
2011;SDS011;1009;51.436;6.972;2023-03-01T07:45:21;18.43;;;16.20;;
2011;SDS011;1009;51.436;6.972;2023-03-01T07:47:49;18.60;;;15.47;;
2011;SDS011;1009;51.436;6.972;2023-03-01T07:50:17;19.50;;;15.37;;
2011;SDS011;1009;51.436;6.972;2023-03-01T07:52:44;18.70;;;15.90;;
2011;SDS011;1009;51.436;6.972;2023-03-01T07:55:11;19.13;;;16.37;;
2011;SDS011;1009;51.436;6.972;2023-03-01T07:57:38;17.13;;;14.67;;
2011;SDS011;1009;51.436;6.972;2023-03-01T08:00:06;18.43;;;16.43;;
2011;SDS011;1009;51.436;6.972;2023-03-01T08:02:40;16.43;;;14.73;;
2011;SDS011;1009;51.436;6.972;2023-03-01T08:05:07;17.20;;;14.77;;
2011;SDS011;1009;51.436;6.972;2023-03-01T08:07:36;16.33;;;14.60;;
2011;SDS011;1009;51.436;6.972;2023-03-01T08:10:03;19.47;;;13.87;;
2011;SDS011;1009;51.436;6.972;2023-03-01T08:12:30;16.60;;;14.50;;
2011;SDS011;1009;51.436;6.972;2023-03-01T08:14:56;18.03;;;14.23;;
2011;SDS011;1009;51.436;6.972;2023-03-01T08:17:23;18.17;;;14.97;;
2011;SDS011;1009;51.436;6.972;2023-03-01T08:19:50;22.33;;;13.50;;
2011;SDS011;1009;51.436;6.972;2023-03-01T08:22:17;17.57;;;13.83;;
2011;SDS011;1009;51.436;6.972;2023-03-01T08:24:46;17.67;;;13.13;;
2011;SDS011;1009;51.436;6.972;2023-03-01T08:27:14;16.23;;;14.00;;
2011;SDS011;1009;51.436;6.972;2023-03-01T08:29:41;16.00;;;12.50;;
2011;SDS011;1009;51.436;6.972;2023-03-01T08:32:07;14.53;;;12.93;;
2011;SDS011;1009;51.436;6.972;2023-03-01T08:34:34;16.97;;;13.70;;
2011;SDS011;1009;51.436;6.972;2023-03-01T08:37:01;14.60;;;12.30;;
2011;SDS011;1009;51.436;6.972;2023-03-01T08:39:28;13.67;;;12.20;;
2011;SDS011;1009;51.436;6.972;2023-03-01T08:41:56;13.73;;;12.13;;
2011;SDS011;1009;51.436;6.972;2023-03-01T08:44:23;14.03;;;12.53;;
2011;SDS011;1009;51.436;6.972;2023-03-01T08:46:50;14.83;;;12.57;;
2011;SDS011;1009;51.436;6.972;2023-03-01T08:49:18;13.60;;;11.70;;
2011;SDS011;1009;51.436;6.972;2023-03-01T08:51:46;13.43;;;11.80;;
2011;SDS011;1009;51.436;6.972;2023-03-01T08:54:13;18.30;;;13.50;;
2011;SDS011;1009;51.436;6.972;2023-03-01T08:56:43;14.73;;;12.60;;
2011;SDS011;1009;51.436;6.972;2023-03-01T08:59:12;17.07;;;13.13;;
2011;SDS011;1009;51.436;6.972;2023-03-01T09:01:40;15.33;;;12.30;;
2011;SDS011;1009;51.436;6.972;2023-03-01T09:04:09;13.93;;;12.43;;
2011;SDS011;1009;51.436;6.972;2023-03-01T09:06:36;14.93;;;12.33;;
2011;SDS011;1009;51.436;6.972;2023-03-01T09:09:04;14.27;;;12.50;;
2011;SDS011;1009;51.436;6.972;2023-03-01T09:11:32;16.53;;;13.47;;
2011;SDS011;1009;51.436;6.972;2023-03-01T09:13:59;16.33;;;13.20;;
2011;SDS011;1009;51.436;6.972;2023-03-01T09:16:27;15.93;;;12.37;;
2011;SDS011;1009;51.436;6.972;2023-03-01T09:19:01;15.30;;;13.50;;
2011;SDS011;1009;51.436;6.972;2023-03-01T09:21:29;15.30;;;12.20;;
2011;SDS011;1009;51.436;6.972;2023-03-01T09:23:57;18.10;;;11.93;;
2011;SDS011;1009;51.436;6.972;2023-03-01T09:26:24;13.43;;;12.03;;
2011;SDS011;1009;51.436;6.972;2023-03-01T09:28:52;12.60;;;10.40;;
2011;SDS011;1009;51.436;6.972;2023-03-01T09:31:22;13.37;;;11.27;;
2011;SDS011;1009;51.436;6.972;2023-03-01T09:33:51;14.77;;;11.60;;
2011;SDS011;1009;51.436;6.972;2023-03-01T09:36:20;13.57;;;11.47;;
2011;SDS011;1009;51.436;6.972;2023-03-01T09:38:48;12.33;;;11.23;;
2011;SDS011;1009;51.436;6.972;2023-03-01T09:41:18;11.90;;;10.70;;
2011;SDS011;1009;51.436;6.972;2023-03-01T09:44:05;11.87;;;10.60;;
2011;SDS011;1009;51.436;6.972;2023-03-01T09:46:42;13.67;;;12.07;;
2011;SDS011;1009;51.436;6.972;2023-03-01T09:49:16;12.87;;;10.47;;
2011;SDS011;1009;51.436;6.972;2023-03-01T09:51:47;12.40;;;11.20;;
2011;SDS011;1009;51.436;6.972;2023-03-01T09:54:21;13.60;;;11.17;;
2011;SDS011;1009;51.436;6.972;2023-03-01T09:56:52;14.53;;;10.80;;
2011;SDS011;1009;51.436;6.972;2023-03-01T09:59:25;12.00;;;10.70;;
2011;SDS011;1009;51.436;6.972;2023-03-01T10:01:59;13.03;;;11.60;;
2011;SDS011;1009;51.436;6.972;2023-03-01T10:04:43;15.43;;;12.00;;
2011;SDS011;1009;51.436;6.972;2023-03-01T10:07:16;15.30;;;10.90;;
2011;SDS011;1009;51.436;6.972;2023-03-01T10:09:53;13.67;;;11.77;;
2011;SDS011;1009;51.436;6.972;2023-03-01T10:12:20;12.57;;;11.23;;
2011;SDS011;1009;51.436;6.972;2023-03-01T10:14:54;12.07;;;10.83;;
2011;SDS011;1009;51.436;6.972;2023-03-01T10:17:28;11.90;;;10.67;;
2011;SDS011;1009;51.436;6.972;2023-03-01T10:20:10;16.80;;;11.10;;
2011;SDS011;1009;51.436;6.972;2023-03-01T10:22:42;12.17;;;10.97;;
2011;SDS011;1009;51.436;6.972;2023-03-01T10:25:14;11.87;;;10.77;;
2011;SDS011;1009;51.436;6.972;2023-03-01T10:27:45;11.73;;;9.57;;
2011;SDS011;1009;51.436;6.972;2023-03-01T10:30:17;12.23;;;10.37;;
2011;SDS011;1009;51.436;6.972;2023-03-01T10:32:48;12.43;;;9.70;;
2011;SDS011;1009;51.436;6.972;2023-03-01T10:35:20;12.80;;;11.27;;
2011;SDS011;1009;51.436;6.972;2023-03-01T10:37:58;10.93;;;9.90;;
2011;SDS011;1009;51.436;6.972;2023-03-01T10:40:29;10.97;;;9.87;;
2011;SDS011;1009;51.436;6.972;2023-03-01T10:42:57;14.60;;;9.27;;
2011;SDS011;1009;51.436;6.972;2023-03-01T10:45:33;10.90;;;9.50;;
2011;SDS011;1009;51.436;6.972;2023-03-01T10:48:03;10.20;;;9.20;;
2011;SDS011;1009;51.436;6.972;2023-03-01T10:50:32;9.87;;;8.87;;
2011;SDS011;1009;51.436;6.972;2023-03-01T10:53:00;10.10;;;8.53;;
2011;SDS011;1009;51.436;6.972;2023-03-01T10:55:30;10.07;;;8.90;;
2011;SDS011;1009;51.436;6.972;2023-03-01T10:58:07;11.30;;;9.03;;
2011;SDS011;1009;51.436;6.972;2023-03-01T11:00:47;9.37;;;8.00;;
2011;SDS011;1009;51.436;6.972;2023-03-01T11:03:18;10.70;;;9.00;;
2011;SDS011;1009;51.436;6.972;2023-03-01T11:05:53;12.67;;;8.47;;
2011;SDS011;1009;51.436;6.972;2023-03-01T11:08:32;9.10;;;8.20;;
2011;SDS011;1009;51.436;6.972;2023-03-01T11:11:04;9.50;;;8.60;;
2011;SDS011;1009;51.436;6.972;2023-03-01T11:13:33;11.63;;;8.67;;
2011;SDS011;1009;51.436;6.972;2023-03-01T11:16:01;9.10;;;7.97;;
2011;SDS011;1009;51.436;6.972;2023-03-01T11:18:30;9.47;;;8.00;;
2011;SDS011;1009;51.436;6.972;2023-03-01T11:20:59;10.00;;;8.93;;
2011;SDS011;1009;51.436;6.972;2023-03-01T11:23:28;10.37;;;8.37;;
2011;SDS011;1009;51.436;6.972;2023-03-01T11:25:57;9.90;;;7.70;;
2011;SDS011;1009;51.436;6.972;2023-03-01T11:28:27;9.03;;;7.90;;
2011;SDS011;1009;51.436;6.972;2023-03-01T11:30:56;9.60;;;8.30;;
2011;SDS011;1009;51.436;6.972;2023-03-01T11:33:30;9.60;;;7.20;;
2011;SDS011;1009;51.436;6.972;2023-03-01T11:36:08;9.40;;;7.57;;
2011;SDS011;1009;51.436;6.972;2023-03-01T11:38:42;7.93;;;7.00;;
2011;SDS011;1009;51.436;6.972;2023-03-01T11:41:12;10.20;;;7.40;;
2011;SDS011;1009;51.436;6.972;2023-03-01T11:43:44;11.57;;;8.50;;
2011;SDS011;1009;51.436;6.972;2023-03-01T11:46:33;10.47;;;8.97;;
2011;SDS011;1009;51.436;6.972;2023-03-01T11:49:26;10.97;;;9.13;;
2011;SDS011;1009;51.436;6.972;2023-03-01T11:52:15;10.30;;;8.60;;
2011;SDS011;1009;51.436;6.972;2023-03-01T11:54:50;10.17;;;9.17;;
2011;SDS011;1009;51.436;6.972;2023-03-01T11:57:32;16.43;;;8.70;;
2011;SDS011;1009;51.436;6.972;2023-03-01T12:00:15;11.00;;;8.10;;
2011;SDS011;1009;51.436;6.972;2023-03-01T12:03:07;10.90;;;9.07;;
2011;SDS011;1009;51.436;6.972;2023-03-01T12:08:58;10.23;;;8.70;;
2011;SDS011;1009;51.436;6.972;2023-03-01T12:11:38;9.60;;;8.07;;
2011;SDS011;1009;51.436;6.972;2023-03-01T12:14:28;9.17;;;7.33;;
2011;SDS011;1009;51.436;6.972;2023-03-01T12:17:12;10.73;;;8.13;;
2011;SDS011;1009;51.436;6.972;2023-03-01T12:19:56;9.13;;;8.00;;
2011;SDS011;1009;51.436;6.972;2023-03-01T12:22:37;9.97;;;8.00;;
2011;SDS011;1009;51.436;6.972;2023-03-01T12:25:18;8.73;;;7.30;;
2011;SDS011;1009;51.436;6.972;2023-03-01T12:28:04;15.60;;;7.50;;
2011;SDS011;1009;51.436;6.972;2023-03-01T12:30:53;11.90;;;8.20;;
2011;SDS011;1009;51.436;6.972;2023-03-01T12:33:51;8.37;;;7.43;;
2011;SDS011;1009;51.436;6.972;2023-03-01T12:36:26;9.50;;;8.50;;
2011;SDS011;1009;51.436;6.972;2023-03-01T12:39:09;10.00;;;9.00;;
2011;SDS011;1009;51.436;6.972;2023-03-01T12:41:49;11.47;;;8.60;;
2011;SDS011;1009;51.436;6.972;2023-03-01T12:44:31;10.43;;;8.77;;
2011;SDS011;1009;51.436;6.972;2023-03-01T12:47:17;9.77;;;7.90;;
2011;SDS011;1009;51.436;6.972;2023-03-01T12:49:54;9.13;;;7.60;;
2011;SDS011;1009;51.436;6.972;2023-03-01T12:52:24;9.57;;;8.63;;
2011;SDS011;1009;51.436;6.972;2023-03-01T12:55:02;12.00;;;8.40;;
2011;SDS011;1009;51.436;6.972;2023-03-01T12:57:37;11.73;;;9.47;;
2011;SDS011;1009;51.436;6.972;2023-03-01T13:00:11;10.13;;;8.40;;
2011;SDS011;1009;51.436;6.972;2023-03-01T13:02:53;12.27;;;9.10;;
2011;SDS011;1009;51.436;6.972;2023-03-01T13:05:28;9.10;;;7.17;;
2011;SDS011;1009;51.436;6.972;2023-03-01T13:08:08;10.37;;;7.40;;
2011;SDS011;1009;51.436;6.972;2023-03-01T13:10:43;9.33;;;7.17;;
2011;SDS011;1009;51.436;6.972;2023-03-01T13:13:21;10.90;;;8.63;;
2011;SDS011;1009;51.436;6.972;2023-03-01T13:15:49;7.93;;;7.07;;
2011;SDS011;1009;51.436;6.972;2023-03-01T13:18:27;8.60;;;7.60;;
2011;SDS011;1009;51.436;6.972;2023-03-01T13:20:58;10.03;;;8.10;;
2011;SDS011;1009;51.436;6.972;2023-03-01T13:23:30;12.73;;;7.87;;
2011;SDS011;1009;51.436;6.972;2023-03-01T13:26:04;9.43;;;8.27;;
2011;SDS011;1009;51.436;6.972;2023-03-01T13:28:39;9.80;;;7.53;;
2011;SDS011;1009;51.436;6.972;2023-03-01T13:34:45;10.57;;;8.00;;
2011;SDS011;1009;51.436;6.972;2023-03-01T13:40:16;9.57;;;7.53;;
2011;SDS011;1009;51.436;6.972;2023-03-01T13:43:22;12.47;;;8.93;;
2011;SDS011;1009;51.436;6.972;2023-03-01T13:45:59;9.83;;;7.40;;
2011;SDS011;1009;51.436;6.972;2023-03-01T13:48:27;10.90;;;7.80;;
2011;SDS011;1009;51.436;6.972;2023-03-01T13:50:57;8.67;;;7.73;;
2011;SDS011;1009;51.436;6.972;2023-03-01T13:53:27;12.43;;;8.70;;
2011;SDS011;1009;51.436;6.972;2023-03-01T13:55:58;11.37;;;8.60;;
2011;SDS011;1009;51.436;6.972;2023-03-01T13:58:27;10.97;;;8.40;;
2011;SDS011;1009;51.436;6.972;2023-03-01T14:00:58;12.17;;;8.40;;
2011;SDS011;1009;51.436;6.972;2023-03-01T14:03:26;10.80;;;8.47;;
2011;SDS011;1009;51.436;6.972;2023-03-01T14:06:04;11.90;;;7.87;;
2011;SDS011;1009;51.436;6.972;2023-03-01T14:08:33;10.80;;;8.00;;
2011;SDS011;1009;51.436;6.972;2023-03-01T14:11:10;11.70;;;7.83;;
2011;SDS011;1009;51.436;6.972;2023-03-01T14:14:01;10.20;;;9.17;;
2011;SDS011;1009;51.436;6.972;2023-03-01T14:16:52;10.43;;;9.07;;
2011;SDS011;1009;51.436;6.972;2023-03-01T14:19:26;14.60;;;8.73;;
2011;SDS011;1009;51.436;6.972;2023-03-01T14:22:02;9.97;;;8.80;;
2011;SDS011;1009;51.436;6.972;2023-03-01T14:24:39;13.60;;;8.83;;
2011;SDS011;1009;51.436;6.972;2023-03-01T14:27:12;10.63;;;8.40;;
2011;SDS011;1009;51.436;6.972;2023-03-01T14:29:39;12.17;;;8.17;;
2011;SDS011;1009;51.436;6.972;2023-03-01T14:32:12;15.73;;;8.90;;
2011;SDS011;1009;51.436;6.972;2023-03-01T14:34:45;10.70;;;8.97;;
2011;SDS011;1009;51.436;6.972;2023-03-01T14:37:20;11.07;;;7.90;;
2011;SDS011;1009;51.436;6.972;2023-03-01T14:39:49;9.23;;;8.27;;
2011;SDS011;1009;51.436;6.972;2023-03-01T14:42:16;11.20;;;8.40;;
2011;SDS011;1009;51.436;6.972;2023-03-01T14:44:45;13.80;;;8.80;;
2011;SDS011;1009;51.436;6.972;2023-03-01T14:47:15;10.00;;;8.93;;
2011;SDS011;1009;51.436;6.972;2023-03-01T14:49:49;13.87;;;9.17;;
2011;SDS011;1009;51.436;6.972;2023-03-01T14:52:22;11.93;;;8.47;;
2011;SDS011;1009;51.436;6.972;2023-03-01T14:54:59;11.47;;;8.30;;
2011;SDS011;1009;51.436;6.972;2023-03-01T14:57:27;11.60;;;7.90;;
2011;SDS011;1009;51.436;6.972;2023-03-01T14:59:54;14.00;;;8.90;;
2011;SDS011;1009;51.436;6.972;2023-03-01T15:02:26;10.40;;;7.83;;
2011;SDS011;1009;51.436;6.972;2023-03-01T15:04:55;13.43;;;8.87;;
2011;SDS011;1009;51.436;6.972;2023-03-01T15:07:26;9.60;;;8.17;;
2011;SDS011;1009;51.436;6.972;2023-03-01T15:09:56;11.97;;;8.43;;
2011;SDS011;1009;51.436;6.972;2023-03-01T15:12:37;12.33;;;8.70;;
2011;SDS011;1009;51.436;6.972;2023-03-01T15:18:06;9.63;;;8.10;;
2011;SDS011;1009;51.436;6.972;2023-03-01T15:20:47;11.40;;;7.73;;
2011;SDS011;1009;51.436;6.972;2023-03-01T15:23:18;17.10;;;8.00;;
2011;SDS011;1009;51.436;6.972;2023-03-01T15:25:48;10.50;;;7.93;;
2011;SDS011;1009;51.436;6.972;2023-03-01T15:28:21;13.70;;;8.23;;